Graham, FL (32042)

5:04 PM EDT on September 01, 2014 (GMT -0400)
North Keystone | Change Station
CLOSE
Current Station
Personal Weather Station
Location: Keystone Heights, FL
Elevation: 174 ft
Nearby Weather Stations

Elev 174 ft 29.83 °N, 81.98 °W | Updated 1 second ago

Partly Cloudy
Partly Cloudy
93.7 °F
Feels Like 89 °F
N
0.0
Wind Variable Wind from SSE
Gusts 0.0 mph

Today
High -- | Low -- °F
--% Chance of Precip.
Yesterday
High -- | Low -- °F
Precip. -- in
7:05 AM 7:50 PM
Waxing Crescent, 44% visible
Pressure 30.02 in
Visibility 10.0 miles
Clouds Clear
Heat Index 89 °F
Dew Point -7 °F
Humidity 2%
Rainfall 0.00 in
Snow Depth Not available.
UV 6 out of 12
Pollen 8.50 out of 12
Air Quality Not available.
Flu Activity Not available.
METAR KGNV 012053Z 14006KT 10SM CLR 34/22 A3003 RMK AO2 SLP166 T03390217 56025

More Conditions Fewer Conditions

Pressure 30.02 in
Visibility 10.0 miles
Clouds Clear
Heat Index 89 °F
Dew Point -7 °F
Humidity 2%
Rainfall 0.00 in
Snow Depth Not available.
UV 6 out of 12
Pollen 8.50 out of 12
Air Quality Not available.
Flu Activity Not available.
METAR KGNV 012053Z 14006KT 10SM CLR 34/22 A3003 RMK AO2 SLP166 T03390217 56025

More Conditions Fewer Conditions

10-Day Weather Forecast

Almanac

Astronomy

Sep. 01, 2014 Rise Set
Actual Time 7:05 AM EDT 7:50 PM EDT
Civil Twilight 6:41 AM EDT 8:15 PM EDT
Nautical Twilight 6:12 AM EDT 8:43 PM EDT
Astronomical Twilight 5:43 AM EDT 9:13 PM EDT
Moon 1:21 PM EDT No Moon Set
Length of Visible Light 13h 34m
Length of Day
12h 45m
Tomorrow will be 1m 43s shorter.
Waxing Crescent, 44% of the Moon is Illuminated
Today
Waxing Crescent
Sep 2
First Quarter
Sep 8
Full
Sep 15
Last Quarter
Sep 24
New

Today's Extremes

State Highs State Lows

Community

WunderPhotos

Upload Photos

1,749,407 photos uploaded!

WunderBlogs® & News

Nearby

Snow Depth

Station Depth Elevation
No new snow has been reported.

Earthquake Activity

City Distance Mag. Time & Date
No recent earthquake activity has been reported nearby.
Minimum magnitude displayed is 2.5.

Coastal Water Temperatures

Place Temperature
No Stations Reporting

Nearby Weather Stations